createdAt,value
2019-02-27T00:02:15.986Z,101368.77
2019-02-27T00:04:42.065Z,101379.37
2019-02-27T00:07:07.961Z,101373.25
2019-02-27T00:09:33.921Z,101362.76
2019-02-27T00:11:59.978Z,101354.47
2019-02-27T00:14:25.888Z,101345.31
2019-02-27T00:16:51.840Z,101345.78
2019-02-27T00:19:17.997Z,101344.50
2019-02-27T00:21:44.356Z,101343.62
2019-02-27T00:24:10.205Z,101350.67
2019-02-27T00:26:36.194Z,101337.98
2019-02-27T00:29:02.154Z,101329.62
2019-02-27T00:31:28.113Z,101326.58
2019-02-27T00:33:54.211Z,101319.09
2019-02-27T00:36:20.050Z,101308.48
2019-02-27T00:38:45.937Z,101301.52
2019-02-27T00:41:12.950Z,101291.83
2019-02-27T00:43:39.132Z,101287.47
2019-02-27T00:46:04.993Z,101287.91
2019-02-27T00:48:31.058Z,101279.66
2019-02-27T00:50:57.027Z,101283.19
2019-02-27T00:53:24.577Z,101280.11
2019-02-27T00:55:50.804Z,101274.83
2019-02-27T00:58:16.659Z,101280.98
2019-02-27T01:00:42.620Z,101280.95
2019-02-27T01:03:08.591Z,101280.91
2019-02-27T01:05:34.439Z,101275.62
2019-02-27T01:08:00.419Z,101256.25
2019-02-27T01:10:26.558Z,101251.53
2019-02-27T01:12:52.819Z,101256.77
2019-02-27T01:15:18.877Z,101249.73
2019-02-27T01:17:44.931Z,101248.37
2019-02-27T01:20:12.054Z,101236.91
2019-02-27T01:22:38.077Z,101235.95
2019-02-27T01:25:04.555Z,101236.34
2019-02-27T01:27:30.395Z,101246.03
2019-02-27T01:29:56.300Z,101234.63
2019-02-27T01:32:22.372Z,101218.42
2019-02-27T01:34:48.229Z,101221.55
2019-02-27T01:37:14.072Z,101216.27
2019-02-27T01:39:41.787Z,101221.15
2019-02-27T01:42:07.866Z,101208.03
2019-02-27T01:44:33.833Z,101215.65
2019-02-27T01:47:02.394Z,101207.80
2019-02-27T01:49:27.554Z,101212.65
2019-02-27T01:51:53.432Z,101208.73
2019-02-27T01:54:19.635Z,101201.25
2019-02-27T01:56:45.475Z,101198.20
2019-02-27T01:59:11.343Z,101184.16
2019-02-27T02:01:37.696Z,101192.56
2019-02-27T02:04:03.653Z,101189.00
2019-02-27T02:06:31.939Z,101189.00
2019-02-27T02:09:07.934Z,101180.16
2019-02-27T02:11:35.034Z,101167.88
2019-02-27T02:14:09.538Z,101168.75
2019-02-27T02:16:37.301Z,101155.07
2019-02-27T02:19:05.399Z,101139.27
2019-02-27T02:21:50.166Z,101141.47
2019-02-27T02:24:34.561Z,101122.20
2019-02-27T02:27:02.453Z,101123.16
2019-02-27T02:29:36.228Z,101106.96
2019-02-27T02:32:20.574Z,101103.89
2019-02-27T02:34:51.136Z,101110.48
2019-02-27T02:37:24.834Z,101097.73
2019-02-27T02:40:09.093Z,101089.36
2019-02-27T02:42:42.880Z,101087.78
2019-02-27T02:45:10.628Z,101082.32
2019-02-27T02:47:44.537Z,101077.92
2019-02-27T02:50:28.847Z,101080.17
2019-02-27T02:52:56.713Z,101078.02
2019-02-27T02:55:27.627Z,101061.38
2019-02-27T02:57:58.617Z,101051.70
2019-02-27T03:00:44.353Z,101047.30
2019-02-27T03:03:14.893Z,101039.02
2019-02-27T03:05:59.924Z,101045.84
2019-02-27T03:08:30.747Z,101035.09
2019-02-27T03:11:01.522Z,101019.94
2019-02-27T03:13:29.294Z,101003.41
2019-02-27T03:15:57.188Z,100987.22
2019-02-27T03:18:26.188Z,100980.67
2019-02-27T03:20:58.002Z,100983.73
2019-02-27T03:23:37.941Z,100967.89
2019-02-27T03:26:22.496Z,100957.79
2019-02-27T03:28:50.270Z,100968.42
2019-02-27T03:31:24.100Z,100958.77
2019-02-27T03:34:09.208Z,100955.35
2019-02-27T03:36:38.971Z,100942.34
2019-02-27T03:39:06.816Z,100936.44
2019-02-27T03:41:34.574Z,100929.60
2019-02-27T03:44:02.501Z,100931.20
2019-02-27T03:46:33.036Z,100929.77
2019-02-27T03:49:17.339Z,100930.02
2019-02-27T03:51:50.922Z,100923.73
2019-02-27T03:54:21.302Z,100920.98
2019-02-27T03:56:54.344Z,100916.44
2019-02-27T03:59:42.659Z,100905.25
2019-02-27T04:02:21.668Z,100908.15
2019-02-27T04:05:06.851Z,100896.93
2019-02-27T04:07:45.915Z,100891.97
2019-02-27T04:10:11.946Z,100882.97
2019-02-27T04:12:37.904Z,100863.05
2019-02-27T04:15:05.687Z,100860.28
2019-02-27T04:17:31.556Z,100840.78
2019-02-27T04:19:57.530Z,100836.69
2019-02-27T04:22:23.788Z,100847.60
2019-02-27T04:24:49.749Z,100837.88
2019-02-27T04:27:20.090Z,100835.95
2019-02-27T04:29:43.310Z,100809.41
2019-02-27T04:32:12.089Z,100805.98
2019-02-27T04:34:37.007Z,100797.03
2019-02-27T04:37:02.873Z,100790.03
2019-02-27T04:39:28.956Z,100778.88
2019-02-27T04:41:54.854Z,100759.44
2019-02-27T04:44:20.686Z,100757.59
2019-02-27T04:46:46.725Z,100741.22
2019-02-27T04:49:12.607Z,100726.14
2019-02-27T04:51:38.497Z,100725.69
2019-02-27T04:54:07.308Z,100719.45
2019-02-27T04:56:32.175Z,100701.36
2019-02-27T04:58:58.018Z,100697.32
2019-02-27T05:01:24.006Z,100691.19
2019-02-27T05:03:49.896Z,100679.78
2019-02-27T05:06:15.765Z,100679.72
2019-02-27T05:08:41.902Z,100665.67
2019-02-27T05:11:07.811Z,100664.34
2019-02-27T05:13:34.591Z,100648.00
2019-02-27T05:16:00.697Z,100643.58
2019-02-27T05:18:29.275Z,100640.05
2019-02-27T05:20:54.340Z,100644.03
2019-02-27T05:23:20.397Z,100640.99
2019-02-27T05:25:46.388Z,100627.20
2019-02-27T05:28:12.261Z,100608.66
2019-02-27T05:30:38.267Z,100600.64
2019-02-27T05:33:04.103Z,100600.19
2019-02-27T05:35:29.960Z,100581.64
2019-02-27T05:37:56.048Z,100577.22
2019-02-27T05:40:23.125Z,100573.77
2019-02-27T05:42:49.703Z,100571.58
2019-02-27T05:45:15.709Z,100559.27
2019-02-27T05:47:44.742Z,100565.89
2019-02-27T05:50:10.238Z,100555.61
2019-02-27T05:52:36.189Z,100559.94
2019-02-27T05:55:06.129Z,100558.54
2019-02-27T05:57:31.375Z,100550.11
2019-02-27T06:00:02.210Z,100539.92
2019-02-27T06:02:25.599Z,100543.34
2019-02-27T06:04:51.506Z,100533.55
2019-02-27T06:07:19.018Z,100526.92
2019-02-27T06:09:45.167Z,100522.88
2019-02-27T06:12:11.013Z,100527.72
2019-02-27T06:14:36.972Z,100524.13
2019-02-27T06:17:03.020Z,100527.58
2019-02-27T06:19:30.590Z,100540.75
2019-02-27T06:21:56.937Z,100529.59
2019-02-27T06:24:22.778Z,100519.41
2019-02-27T06:26:48.803Z,100524.71
2019-02-27T06:29:14.838Z,100495.08
2019-02-27T06:31:40.784Z,100484.89
2019-02-27T06:34:06.662Z,100449.66
2019-02-27T06:36:32.713Z,100450.04
2019-02-27T06:39:00.325Z,100445.16
2019-02-27T06:41:26.439Z,100447.73
2019-02-27T06:43:52.350Z,100433.08
2019-02-27T06:46:20.091Z,100434.79
2019-02-27T06:48:45.904Z,100432.06
2019-02-27T06:51:11.953Z,100414.77
2019-02-27T06:53:38.056Z,100427.48
2019-02-27T06:56:04.115Z,100436.69
2019-02-27T06:58:30.139Z,100436.23
2019-02-27T07:00:56.025Z,100426.39
2019-02-27T07:03:21.981Z,100430.28
2019-02-27T07:05:48.129Z,100458.91
2019-02-27T07:08:14.684Z,100462.81
2019-02-27T07:10:40.553Z,100472.80
2019-02-27T07:13:06.529Z,100477.23
2019-02-27T07:15:32.414Z,100473.19
2019-02-27T07:17:58.340Z,100474.89
2019-02-27T07:20:25.285Z,100465.95
2019-02-27T07:22:51.296Z,100462.73
2019-02-27T07:25:17.354Z,100457.36
2019-02-27T07:27:43.392Z,100454.56
2019-02-27T07:30:11.179Z,100441.64
2019-02-27T07:32:37.155Z,100443.80
2019-02-27T07:35:04.033Z,100426.03
2019-02-27T07:37:29.910Z,100429.94
2019-02-27T07:39:55.788Z,100415.36
2019-02-27T07:42:21.923Z,100367.25
2019-02-27T07:44:47.785Z,100413.50
2019-02-27T07:47:13.638Z,100405.55
2019-02-27T07:49:39.602Z,100407.73
2019-02-27T07:52:05.620Z,100401.87
2019-02-27T07:54:31.704Z,100391.11
2019-02-27T07:56:57.728Z,100383.48
2019-02-27T07:59:23.629Z,100379.34
2019-02-27T08:01:49.467Z,100381.35
2019-02-27T08:04:19.055Z,100371.53
2019-02-27T08:06:43.308Z,100373.23
2019-02-27T08:09:09.299Z,100367.48
2019-02-27T08:11:35.329Z,100358.91
2019-02-27T08:14:03.257Z,100342.25
2019-02-27T08:16:28.966Z,100346.16
2019-02-27T08:18:55.052Z,100334.22
2019-02-27T08:21:20.939Z,100321.37
2019-02-27T08:23:46.809Z,100317.69
2019-02-27T08:26:12.844Z,100313.62
2019-02-27T08:28:38.741Z,100312.63
2019-02-27T08:31:04.691Z,100307.70
2019-02-27T08:33:30.760Z,100285.77
2019-02-27T08:35:57.996Z,100299.11
2019-02-27T08:38:23.805Z,100281.87
2019-02-27T08:40:49.849Z,100270.30
2019-02-27T08:43:15.763Z,100260.94
2019-02-27T08:45:41.594Z,100268.73
2019-02-27T08:48:07.634Z,100246.01
2019-02-27T08:50:33.509Z,100246.70
2019-02-27T08:52:59.370Z,100244.34
2019-02-27T08:55:25.567Z,100239.33
2019-02-27T08:57:56.015Z,100229.49
2019-02-27T09:00:27.164Z,100222.59
2019-02-27T09:02:55.324Z,100206.05
2019-02-27T09:05:21.096Z,100191.73
2019-02-27T09:07:47.258Z,100180.20
2019-02-27T09:10:14.114Z,100183.59
2019-02-27T09:12:40.330Z,100182.18
2019-02-27T09:15:07.508Z,100165.16
2019-02-27T09:17:33.392Z,100149.98
2019-02-27T09:19:59.284Z,100155.69
2019-02-27T09:22:25.465Z,100140.94
2019-02-27T09:24:51.314Z,100127.48
2019-02-27T09:27:17.189Z,100133.45
2019-02-27T09:29:43.138Z,100107.95
2019-02-27T09:32:09.281Z,100119.76
2019-02-27T09:34:36.914Z,100109.78
2019-02-27T09:37:03.056Z,100100.72
2019-02-27T09:39:31.256Z,100106.67
2019-02-27T09:41:56.599Z,100106.03
2019-02-27T09:44:22.625Z,100099.98
2019-02-27T09:46:49.877Z,100108.03
2019-02-27T09:49:16.185Z,100109.49
2019-02-27T09:51:42.226Z,100102.57
2019-02-27T09:54:08.205Z,100082.36
2019-02-27T09:56:34.070Z,100089.55
2019-02-27T09:59:00.211Z,100065.36
2019-02-27T10:01:26.059Z,100079.22
2019-02-27T10:03:54.625Z,100064.32
2019-02-27T10:06:19.901Z,100061.77
2019-02-27T10:08:45.880Z,100048.39
2019-02-27T10:11:11.771Z,100045.13
2019-02-27T10:13:38.524Z,100028.62
2019-02-27T10:16:04.606Z,100029.76
2019-02-27T10:18:30.521Z,100027.87
2019-02-27T10:20:57.653Z,100013.52
2019-02-27T10:23:23.654Z,100010.39
2019-02-27T10:25:49.997Z,100016.84
2019-02-27T10:28:16.222Z,100003.05
2019-02-27T10:30:42.197Z,99984.23
2019-02-27T10:33:11.146Z,99988.13
2019-02-27T10:35:35.992Z,99974.73
2019-02-27T10:38:01.975Z,99972.38
2019-02-27T10:40:27.965Z,99966.86
2019-02-27T10:42:53.912Z,99945.48
2019-02-27T10:45:19.787Z,99950.23
2019-02-27T10:47:45.666Z,99943.84
2019-02-27T10:50:12.609Z,99941.55
2019-02-27T10:52:38.575Z,99926.83
2019-02-27T10:55:11.348Z,99921.30
2019-02-27T10:57:38.412Z,99930.80
2019-02-27T11:00:06.082Z,99924.31
2019-02-27T11:02:31.992Z,99903.80
2019-02-27T11:04:57.936Z,99896.54
2019-02-27T11:07:23.802Z,99884.36
2019-02-27T11:09:49.795Z,99888.64
2019-02-27T11:12:15.759Z,99884.45
2019-02-27T11:14:41.844Z,99880.61
2019-02-27T11:17:07.816Z,99869.86
2019-02-27T11:19:34.878Z,99846.20
2019-02-27T11:22:00.917Z,99832.80
2019-02-27T11:24:26.782Z,99816.22
2019-02-27T11:26:52.957Z,99832.08
2019-02-27T11:29:23.589Z,99822.95
2019-02-27T11:31:46.991Z,99809.89
2019-02-27T11:34:13.047Z,99815.11
2019-02-27T11:36:39.645Z,99800.36
2019-02-27T11:39:05.722Z,99806.55
2019-02-27T11:41:31.868Z,99805.47
2019-02-27T11:43:57.921Z,99797.73
2019-02-27T11:46:23.811Z,99784.83
2019-02-27T11:48:49.772Z,99797.92
2019-02-27T11:51:17.495Z,99786.80
2019-02-27T11:53:43.437Z,99783.85
2019-02-27T11:56:09.507Z,99786.80
2019-02-27T11:58:38.517Z,99771.94
2019-02-27T12:01:04.687Z,99757.08
2019-02-27T12:03:30.822Z,99767.88
2019-02-27T12:05:56.787Z,99740.59
2019-02-27T12:08:25.791Z,99748.49
2019-02-27T12:10:50.525Z,99750.24
2019-02-27T12:13:16.389Z,99741.45
2019-02-27T12:15:43.586Z,99750.16
2019-02-27T12:18:10.267Z,99757.03
2019-02-27T12:20:36.111Z,99744.36
2019-02-27T12:23:02.123Z,99747.48
2019-02-27T12:25:30.150Z,99734.40
2019-02-27T12:27:56.337Z,99725.08
2019-02-27T12:30:26.035Z,99740.70
2019-02-27T12:32:55.587Z,99711.87
2019-02-27T12:35:20.973Z,99695.26
2019-02-27T12:37:46.950Z,99705.61
2019-02-27T12:40:14.281Z,99688.87
2019-02-27T12:42:42.514Z,99686.33
2019-02-27T12:45:09.752Z,99681.47
2019-02-27T12:47:37.612Z,99670.41
2019-02-27T12:50:05.188Z,99679.78
2019-02-27T12:52:31.097Z,99684.25
2019-02-27T12:54:59.096Z,99640.76
2019-02-27T12:57:24.834Z,99639.54
2019-02-27T12:59:50.769Z,99667.91
2019-02-27T13:02:16.819Z,99662.09
2019-02-27T13:04:42.710Z,99657.73
2019-02-27T13:07:10.716Z,99660.63
2019-02-27T13:09:36.509Z,99646.67
2019-02-27T13:12:02.447Z,99669.92
2019-02-27T13:14:28.298Z,99645.57
2019-02-27T13:16:54.369Z,99629.19
2019-02-27T13:19:20.355Z,99646.19
2019-02-27T13:21:46.313Z,99654.64
2019-02-27T13:24:15.079Z,99631.23
2019-02-27T13:26:39.986Z,99616.23
2019-02-27T13:29:05.956Z,99618.90
2019-02-27T13:31:31.923Z,99594.08
2019-02-27T13:33:57.825Z,99612.36
2019-02-27T13:36:23.771Z,99615.02
2019-02-27T13:38:52.171Z,99608.34
2019-02-27T13:41:17.659Z,99631.34
2019-02-27T13:43:43.636Z,99615.38
2019-02-27T13:46:09.579Z,99607.03
2019-02-27T13:48:37.405Z,99603.39
2019-02-27T13:51:03.349Z,99610.91
2019-02-27T13:53:29.392Z,99609.34
2019-02-27T13:55:55.270Z,99601.47
2019-02-27T13:58:21.107Z,99609.56
2019-02-27T14:00:47.197Z,99600.94
2019-02-27T14:03:13.420Z,99597.65
2019-02-27T14:05:39.238Z,99598.23
2019-02-27T14:08:05.299Z,99591.69
2019-02-27T14:10:32.173Z,99588.67
2019-02-27T14:12:58.160Z,99586.70
2019-02-27T14:15:26.732Z,99587.44
2019-02-27T14:17:51.953Z,99585.36
2019-02-27T14:20:19.946Z,99569.03
2019-02-27T14:22:46.103Z,99575.30
2019-02-27T14:25:13.897Z,99579.79
2019-02-27T14:27:39.833Z,99573.25
2019-02-27T14:30:07.721Z,99570.70
2019-02-27T14:32:33.615Z,99579.27
2019-02-27T14:35:00.515Z,99583.38
2019-02-27T14:37:27.367Z,99574.53
2019-02-27T14:39:53.308Z,99575.03
2019-02-27T14:42:20.492Z,99555.91
2019-02-27T14:44:47.047Z,99558.56
2019-02-27T14:47:12.906Z,99551.67
2019-02-27T14:49:38.849Z,99543.64
2019-02-27T14:52:05.034Z,99532.86
2019-02-27T14:54:31.032Z,99524.14
2019-02-27T14:56:56.969Z,99535.62
2019-02-27T14:59:23.144Z,99546.84
2019-02-27T15:01:49.441Z,99538.50
2019-02-27T15:04:15.374Z,99532.20
2019-02-27T15:06:41.830Z,99526.42
2019-02-27T15:09:07.783Z,99529.08
2019-02-27T15:11:33.658Z,99530.52
2019-02-27T15:14:00.691Z,99526.64
2019-02-27T15:16:26.634Z,99520.47
2019-02-27T15:18:55.004Z,99517.56
2019-02-27T15:21:20.510Z,99502.07
2019-02-27T15:23:46.358Z,99509.70
2019-02-27T15:26:13.677Z,99502.30
2019-02-27T15:28:41.648Z,99507.27
2019-02-27T15:31:08.322Z,99503.84
2019-02-27T15:33:35.890Z,99497.42
2019-02-27T15:36:02.129Z,99495.74
2019-02-27T15:38:28.094Z,99498.23
2019-02-27T15:40:54.327Z,99490.59
2019-02-27T15:43:20.296Z,99489.02
2019-02-27T15:45:47.987Z,99484.17
2019-02-27T15:48:13.977Z,99493.58
2019-02-27T15:50:40.071Z,99498.66
2019-02-27T15:53:06.015Z,99489.82
2019-02-27T15:55:34.249Z,99484.86
2019-02-27T15:57:59.606Z,99489.46
2019-02-27T16:00:26.054Z,99485.08
2019-02-27T16:02:52.201Z,99489.69
2019-02-27T16:05:18.287Z,99483.73
2019-02-27T16:07:49.634Z,99479.22
2019-02-27T16:10:19.726Z,99479.32
2019-02-27T16:12:45.597Z,99471.97
2019-02-27T16:15:16.944Z,99478.22
2019-02-27T16:17:43.339Z,99468.34
2019-02-27T16:20:16.143Z,99467.00
2019-02-27T16:22:40.947Z,99457.70
2019-02-27T16:25:08.523Z,99462.44
2019-02-27T16:27:35.374Z,99458.56
2019-02-27T16:30:02.988Z,99468.09
2019-02-27T16:32:28.980Z,99458.26
2019-02-27T16:34:54.852Z,99455.71
2019-02-27T16:37:22.808Z,99456.65
2019-02-27T16:39:48.474Z,99452.30
2019-02-27T16:42:14.338Z,99453.38
2019-02-27T16:44:40.294Z,99456.62
2019-02-27T16:47:06.239Z,99445.86
2019-02-27T16:49:32.198Z,99440.16
2019-02-27T16:51:58.067Z,99434.12
2019-02-27T16:54:26.611Z,99436.27
2019-02-27T16:56:51.696Z,99423.96
2019-02-27T16:59:17.545Z,99429.86
2019-02-27T17:01:44.458Z,99425.73
2019-02-27T17:04:11.423Z,99422.83
2019-02-27T17:06:37.305Z,99426.06
2019-02-27T17:09:07.033Z,99417.78
2019-02-27T17:11:32.574Z,99405.86
2019-02-27T17:13:58.978Z,99422.88
2019-02-27T17:16:25.046Z,99404.14
2019-02-27T17:18:50.882Z,99411.00
2019-02-27T17:21:19.457Z,99392.99
2019-02-27T17:23:46.681Z,99398.63
2019-02-27T17:26:12.299Z,99402.36
2019-02-27T17:28:38.281Z,99403.30
2019-02-27T17:31:04.332Z,99399.06
2019-02-27T17:33:31.531Z,99402.30
2019-02-27T17:35:59.256Z,99405.45
2019-02-27T17:38:25.310Z,99394.94
2019-02-27T17:40:52.462Z,99398.53
2019-02-27T17:43:18.416Z,99394.30
2019-02-27T17:45:46.944Z,99383.90
2019-02-27T17:48:13.042Z,99372.28
2019-02-27T17:50:39.060Z,99370.20
2019-02-27T17:53:05.035Z,99364.64
2019-02-27T17:55:30.893Z,99360.34
2019-02-27T17:57:58.420Z,99372.78
2019-02-27T18:00:38.751Z,99356.58
2019-02-27T18:03:05.815Z,99356.55
2019-02-27T18:05:31.837Z,99358.55
2019-02-27T18:07:57.982Z,99364.72
2019-02-27T18:10:24.040Z,99359.16
2019-02-27T18:12:51.606Z,99364.19
2019-02-27T18:15:20.367Z,99349.91
2019-02-27T18:17:46.063Z,99354.11
2019-02-27T18:20:12.144Z,99349.02
2019-02-27T18:22:38.222Z,99354.42
2019-02-27T18:25:07.438Z,99354.17
2019-02-27T18:27:33.544Z,99345.93
2019-02-27T18:29:59.919Z,99350.52
2019-02-27T18:32:26.484Z,99337.72
2019-02-27T18:34:54.561Z,99345.67
2019-02-27T18:37:20.255Z,99341.44
2019-02-27T18:39:46.213Z,99336.96
2019-02-27T18:42:12.061Z,99326.96
2019-02-27T18:44:38.366Z,99332.84
2019-02-27T18:47:05.795Z,99340.44
2019-02-27T18:49:31.650Z,99341.47
2019-02-27T18:51:57.658Z,99331.36
2019-02-27T18:54:25.167Z,99334.48
2019-02-27T18:56:51.284Z,99323.98
2019-02-27T18:59:17.379Z,99325.98
2019-02-27T19:01:45.101Z,99317.38
2019-02-27T19:04:10.980Z,99311.36
2019-02-27T19:06:36.989Z,99304.84
2019-02-27T19:09:03.439Z,99311.78
2019-02-27T19:11:29.293Z,99308.73
2019-02-27T19:13:55.449Z,99304.50
2019-02-27T19:16:21.536Z,99297.52
2019-02-27T19:18:47.506Z,99301.60
2019-02-27T19:21:13.649Z,99283.15
2019-02-27T19:23:39.605Z,99289.48
2019-02-27T19:26:06.415Z,99284.69
2019-02-27T19:28:33.476Z,99286.59
2019-02-27T19:30:59.428Z,99290.66
2019-02-27T19:33:25.685Z,99293.99
2019-02-27T19:35:55.960Z,99284.82
2019-02-27T19:38:19.589Z,99278.77
2019-02-27T19:40:45.564Z,99279.37
2019-02-27T19:43:11.632Z,99273.31
2019-02-27T19:45:37.576Z,99263.39
2019-02-27T19:48:03.732Z,99263.13
2019-02-27T19:50:29.842Z,99258.80
2019-02-27T19:52:55.885Z,99261.66
2019-02-27T19:55:26.535Z,99256.47
2019-02-27T19:57:49.782Z,99257.39
2019-02-27T20:00:16.854Z,99253.53
2019-02-27T20:02:42.704Z,99261.87
2019-02-27T20:05:08.843Z,99261.97
2019-02-27T20:07:35.830Z,99254.49
2019-02-27T20:10:03.143Z,99257.70
2019-02-27T20:12:29.388Z,99253.84
2019-02-27T20:14:55.432Z,99252.16
2019-02-27T20:17:21.304Z,99256.59
2019-02-27T20:19:47.348Z,99245.63
2019-02-27T20:22:15.440Z,99243.95
2019-02-27T20:24:43.040Z,99255.58
2019-02-27T20:27:09.138Z,99252.11
2019-02-27T20:29:39.249Z,99250.02
2019-02-27T20:32:02.739Z,99247.17
2019-02-27T20:34:28.831Z,99236.21
2019-02-27T20:36:54.781Z,99226.94
2019-02-27T20:39:23.175Z,99227.30
2019-02-27T20:41:48.696Z,99221.64
2019-02-27T20:44:14.760Z,99216.91
2019-02-27T20:46:40.635Z,99206.03
2019-02-27T20:49:06.617Z,99205.31
2019-02-27T20:51:32.472Z,99159.70
2019-02-27T20:53:58.314Z,99211.02
2019-02-27T20:56:24.259Z,99207.63
2019-02-27T20:58:51.968Z,99205.64
2019-02-27T21:01:17.899Z,99192.91
2019-02-27T21:03:43.934Z,99190.46
2019-02-27T21:06:12.766Z,99178.66
2019-02-27T21:08:37.471Z,99198.98
2019-02-27T21:11:03.669Z,99095.02
2019-02-27T21:13:29.462Z,99193.13
2019-02-27T21:15:55.304Z,99184.83
2019-02-27T21:18:21.325Z,99188.44
2019-02-27T21:20:47.188Z,99176.13
2019-02-27T21:23:13.156Z,99171.80
2019-02-27T21:25:39.189Z,99164.33
2019-02-27T21:28:07.658Z,99170.19
2019-02-27T21:30:32.820Z,99172.94
2019-02-27T21:32:58.860Z,99159.91
2019-02-27T21:35:28.738Z,99157.36
2019-02-27T21:37:52.703Z,99157.11
2019-02-27T21:40:18.824Z,99148.80
2019-02-27T21:42:44.774Z,99144.55
2019-02-27T21:45:11.850Z,99165.36
2019-02-27T21:47:38.074Z,99158.73
2019-02-27T21:50:06.981Z,99154.41
2019-02-27T21:52:33.059Z,99156.66
2019-02-27T21:54:59.061Z,99151.27
2019-02-27T21:57:25.614Z,99148.36
2019-02-27T21:59:52.100Z,99139.09
2019-02-27T22:02:18.153Z,99140.63
2019-02-27T22:04:44.733Z,99137.72
2019-02-27T22:07:10.561Z,99136.40
2019-02-27T22:09:36.687Z,99136.00
2019-02-27T22:12:02.651Z,99128.56
2019-02-27T22:14:28.528Z,99131.67
2019-02-27T22:16:54.472Z,99125.16
2019-02-27T22:19:20.433Z,99129.23
2019-02-27T22:21:46.325Z,99119.22
2019-02-27T22:24:12.273Z,99130.30
2019-02-27T22:26:38.435Z,99116.78
2019-02-27T22:29:04.311Z,99120.85
2019-02-27T22:31:30.317Z,99121.81
2019-02-27T22:33:57.008Z,99125.59
2019-02-27T22:36:22.874Z,99129.30
2019-02-27T22:38:48.982Z,99119.69
2019-02-27T22:41:14.860Z,99118.36
2019-02-27T22:43:40.704Z,99116.17
2019-02-27T22:46:06.649Z,99108.24
2019-02-27T22:48:32.525Z,99114.49
2019-02-27T22:50:58.438Z,99111.09
2019-02-27T22:53:26.202Z,99112.05
2019-02-27T22:55:52.056Z,99100.25
2019-02-27T22:58:19.635Z,99102.03
2019-02-27T23:00:49.682Z,99097.11
2019-02-27T23:03:15.750Z,99088.81
2019-02-27T23:05:41.788Z,99080.62
2019-02-27T23:08:07.998Z,99091.20
2019-02-27T23:10:33.838Z,99082.41
2019-02-27T23:12:59.825Z,99075.03
2019-02-27T23:15:25.983Z,99078.64
2019-02-27T23:17:51.926Z,99069.48
2019-02-27T23:20:20.871Z,99071.67
2019-02-27T23:22:45.730Z,99065.63
2019-02-27T23:25:11.711Z,99065.98
2019-02-27T23:27:37.654Z,99057.69
2019-02-27T23:30:04.970Z,99055.14
2019-02-27T23:32:30.955Z,99061.86
2019-02-27T23:34:56.800Z,99062.82
2019-02-27T23:37:22.851Z,99059.78
2019-02-27T23:39:48.740Z,99058.96
2019-02-27T23:42:14.589Z,99050.27
2019-02-27T23:44:40.571Z,99046.87
2019-02-27T23:47:06.615Z,99039.50
2019-02-27T23:49:32.488Z,99051.05
2019-02-27T23:51:58.498Z,99043.57
2019-02-27T23:54:24.480Z,99043.67
2019-02-27T23:56:51.848Z,99039.25
2019-02-27T23:59:18.121Z,99044.17
